createdAt,value
2022-11-16T00:07:36.748Z,94
2022-11-16T00:17:37.116Z,94
2022-11-16T00:27:37.262Z,94
2022-11-16T00:37:37.387Z,94
2022-11-16T00:47:38.162Z,94
2022-11-16T00:57:39.083Z,94
2022-11-16T01:07:39.291Z,94
2022-11-16T01:17:39.515Z,94
2022-11-16T01:27:39.590Z,94
2022-11-16T01:37:40.154Z,94
2022-11-16T01:47:40.482Z,94
2022-11-16T01:57:41.473Z,95
2022-11-16T02:07:42.028Z,95
2022-11-16T02:17:42.192Z,95
2022-11-16T02:27:42.800Z,95
2022-11-16T02:37:43.317Z,95
2022-11-16T02:47:43.887Z,95
2022-11-16T02:57:44.829Z,95
2022-11-16T03:07:45.315Z,95
2022-11-16T03:17:46.262Z,95
2022-11-16T03:27:47.056Z,95
2022-11-16T03:37:48.126Z,95
2022-11-16T03:47:48.744Z,96
2022-11-16T03:57:49.547Z,96
2022-11-16T04:07:50.332Z,96
2022-11-16T04:17:51.243Z,96
2022-11-16T04:27:51.644Z,96
2022-11-16T04:37:52.327Z,96
2022-11-16T04:47:52.696Z,96
2022-11-16T04:57:52.983Z,96
2022-11-16T05:07:53.517Z,96
2022-11-16T05:17:54.085Z,96
2022-11-16T05:27:54.215Z,96
2022-11-16T05:37:55.299Z,96
2022-11-16T05:57:56.239Z,96
2022-11-16T06:07:56.781Z,96
2022-11-16T06:17:57.443Z,96
2022-11-16T06:27:58.487Z,96
2022-11-16T06:37:59.611Z,96
2022-11-16T06:48:00.580Z,96
2022-11-16T06:58:01.348Z,96
2022-11-16T07:08:02.065Z,96
2022-11-16T07:18:02.144Z,96
2022-11-16T07:28:02.587Z,96
2022-11-16T07:38:03.257Z,96
2022-11-16T07:48:03.892Z,96
2022-11-16T07:58:04.512Z,96
2022-11-16T08:08:04.851Z,96
2022-11-16T08:18:05.706Z,96
2022-11-16T08:28:06.455Z,96
2022-11-16T08:38:06.686Z,96
2022-11-16T08:48:07.521Z,96
2022-11-16T08:58:07.724Z,96
2022-11-16T09:08:08.259Z,95
2022-11-16T09:18:08.586Z,94
2022-11-16T09:38:09.768Z,91
2022-11-16T09:48:09.990Z,89
2022-11-16T09:58:10.242Z,89
2022-11-16T10:08:11.253Z,89
2022-11-16T10:18:11.614Z,88
2022-11-16T10:28:12.441Z,86
2022-11-16T10:38:13.330Z,85
2022-11-16T10:48:14.415Z,84
2022-11-16T10:58:15.415Z,85
2022-11-16T11:08:15.802Z,82
2022-11-16T11:18:16.361Z,82
2022-11-16T11:28:16.774Z,83
2022-11-16T11:38:16.951Z,82
2022-11-16T11:48:17.744Z,81
2022-11-16T11:58:17.871Z,82
2022-11-16T12:08:18.829Z,80
2022-11-16T12:48:22.096Z,79
2022-11-16T12:58:22.441Z,77
2022-11-16T13:18:23.561Z,79
2022-11-16T13:28:25.418Z,78
2022-11-16T13:38:24.624Z,78
2022-11-16T13:48:24.860Z,78
2022-11-16T13:58:25.865Z,79
2022-11-16T14:18:26.728Z,80
2022-11-16T14:28:26.895Z,80
2022-11-16T14:38:27.516Z,81
2022-11-16T14:48:28.295Z,81
2022-11-16T14:58:28.697Z,82
2022-11-16T15:08:29.164Z,82
2022-11-16T15:18:30.085Z,83
2022-11-16T15:28:30.988Z,83
2022-11-16T15:38:31.975Z,84
2022-11-16T15:48:32.816Z,85
2022-11-16T16:08:33.880Z,86
2022-11-16T16:18:34.785Z,87
2022-11-16T16:28:35.206Z,87
2022-11-16T16:38:35.390Z,88
2022-11-16T16:48:39.081Z,88
2022-11-16T16:58:36.602Z,89
2022-11-16T17:18:37.584Z,89
2022-11-16T17:38:38.536Z,89
2022-11-16T17:48:38.747Z,90
2022-11-16T17:58:39.816Z,90
2022-11-16T18:08:39.981Z,90
2022-11-16T18:18:40.384Z,90
2022-11-16T18:38:41.240Z,90
2022-11-16T18:58:50.137Z,90
2022-11-16T19:08:44.096Z,90
2022-11-16T19:18:44.231Z,91
2022-11-16T19:28:44.684Z,91
2022-11-16T19:38:45.521Z,91
2022-11-16T19:48:46.490Z,91
2022-11-16T19:58:47.281Z,91
2022-11-16T20:08:47.449Z,91
2022-11-16T20:18:48.538Z,91
2022-11-16T20:28:49.018Z,91
2022-11-16T20:38:49.909Z,91
2022-11-16T20:48:50.498Z,91
2022-11-16T20:58:51.266Z,91
2022-11-16T21:08:51.954Z,91
2022-11-16T21:18:52.769Z,91
2022-11-16T21:28:53.371Z,91
2022-11-16T21:38:53.845Z,91
2022-11-16T21:48:54.739Z,91
2022-11-16T21:58:55.844Z,91
2022-11-16T22:08:56.125Z,92
2022-11-16T22:18:56.754Z,92
2022-11-16T22:28:57.401Z,92
2022-11-16T22:38:58.314Z,92
2022-11-16T22:48:58.483Z,92
2022-11-16T22:58:59.366Z,92
2022-11-16T23:08:59.620Z,92
2022-11-16T23:19:00.360Z,92
2022-11-16T23:29:00.507Z,91
2022-11-16T23:39:01.149Z,91
2022-11-16T23:49:01.727Z,91
2022-11-16T23:59:02.349Z,91
